sensor_id;sensor_type;location;lat;lon;timestamp;pressure;altitude;pressure_sealevel;temperature;humidity
27425;BME280;15244;49.088;11.886;2022-10-31T00:01:56;96269.31;;;17.29;52.53
27425;BME280;15244;49.088;11.886;2022-10-31T00:06:59;96275.31;;;17.21;52.17
27425;BME280;15244;49.088;11.886;2022-10-31T00:12:00;96269.88;;;17.14;52.24
27425;BME280;15244;49.088;11.886;2022-10-31T00:17:06;96269.94;;;17.10;52.57
27425;BME280;15244;49.088;11.886;2022-10-31T00:22:13;96280.22;;;17.06;52.57
27425;BME280;15244;49.088;11.886;2022-10-31T00:27:17;96275.53;;;17.03;52.69
27425;BME280;15244;49.088;11.886;2022-10-31T00:32:21;96265.72;;;17.02;53.10
27425;BME280;15244;49.088;11.886;2022-10-31T00:37:23;96266.13;;;17.00;53.18
27425;BME280;15244;49.088;11.886;2022-10-31T00:42:24;96270.78;;;17.03;53.45
27425;BME280;15244;49.088;11.886;2022-10-31T00:47:31;96272.72;;;17.06;53.47
27425;BME280;15244;49.088;11.886;2022-10-31T00:52:35;96275.13;;;17.04;53.21
27425;BME280;15244;49.088;11.886;2022-10-31T00:57:37;96266.91;;;17.01;53.15
27425;BME280;15244;49.088;11.886;2022-10-31T01:02:39;96264.59;;;16.96;52.94
27425;BME280;15244;49.088;11.886;2022-10-31T01:07:44;96267.41;;;16.92;53.52
27425;BME280;15244;49.088;11.886;2022-10-31T01:12:48;96272.53;;;16.90;53.54
27425;BME280;15244;49.088;11.886;2022-10-31T01:17:50;96267.03;;;16.90;53.93
27425;BME280;15244;49.088;11.886;2022-10-31T01:22:54;96268.22;;;16.89;54.07
27425;BME280;15244;49.088;11.886;2022-10-31T01:28:00;96266.25;;;16.89;54.03
27425;BME280;15244;49.088;11.886;2022-10-31T01:33:02;96262.72;;;16.89;54.13
27425;BME280;15244;49.088;11.886;2022-10-31T01:38:06;96261.16;;;16.88;54.29
27425;BME280;15244;49.088;11.886;2022-10-31T01:43:13;96267.84;;;16.87;54.13
27425;BME280;15244;49.088;11.886;2022-10-31T01:48:19;96262.81;;;16.82;53.94
27425;BME280;15244;49.088;11.886;2022-10-31T01:53:25;96258.13;;;16.79;54.18
27425;BME280;15244;49.088;11.886;2022-10-31T01:58:29;96261.25;;;16.77;54.21
27425;BME280;15244;49.088;11.886;2022-10-31T02:03:34;96259.69;;;16.76;54.39
27425;BME280;15244;49.088;11.886;2022-10-31T02:08:42;96264.06;;;16.74;54.31
27425;BME280;15244;49.088;11.886;2022-10-31T02:13:47;96254.28;;;16.69;54.25
27425;BME280;15244;49.088;11.886;2022-10-31T02:18:50;96261.00;;;16.64;54.22
27425;BME280;15244;49.088;11.886;2022-10-31T02:34:40;96264.38;;;16.41;53.04
27425;BME280;15244;49.088;11.886;2022-10-31T02:40:02;96260.16;;;16.33;52.90
27425;BME280;15244;49.088;11.886;2022-10-31T02:45:41;96271.59;;;16.28;53.27
27425;BME280;15244;49.088;11.886;2022-10-31T02:50:58;96261.44;;;16.21;53.34
27425;BME280;15244;49.088;11.886;2022-10-31T02:56:08;96256.38;;;16.16;53.16
27425;BME280;15244;49.088;11.886;2022-10-31T03:01:48;96264.63;;;16.13;53.46
27425;BME280;15244;49.088;11.886;2022-10-31T03:07:12;96271.38;;;16.08;53.70
27425;BME280;15244;49.088;11.886;2022-10-31T03:17:42;96270.63;;;16.04;53.66
27425;BME280;15244;49.088;11.886;2022-10-31T03:22:48;96282.81;;;15.99;53.47
27425;BME280;15244;49.088;11.886;2022-10-31T03:27:54;96282.88;;;15.92;53.67
27425;BME280;15244;49.088;11.886;2022-10-31T03:32:59;96273.13;;;15.88;53.99
27425;BME280;15244;49.088;11.886;2022-10-31T03:38:05;96278.25;;;15.86;54.31
27425;BME280;15244;49.088;11.886;2022-10-31T03:43:16;96290.41;;;15.88;54.63
27425;BME280;15244;49.088;11.886;2022-10-31T03:48:24;96289.97;;;15.90;55.19
27425;BME280;15244;49.088;11.886;2022-10-31T03:59:22;96289.97;;;15.93;55.35
27425;BME280;15244;49.088;11.886;2022-10-31T04:04:27;96285.63;;;15.92;55.42
27425;BME280;15244;49.088;11.886;2022-10-31T04:09:35;96283.25;;;15.94;55.37
27425;BME280;15244;49.088;11.886;2022-10-31T04:14:38;96281.72;;;15.90;54.67
27425;BME280;15244;49.088;11.886;2022-10-31T04:19:45;96283.34;;;15.84;54.32
27425;BME280;15244;49.088;11.886;2022-10-31T04:24:49;96282.22;;;15.77;53.95
27425;BME280;15244;49.088;11.886;2022-10-31T04:29:52;96275.59;;;15.71;53.60
27425;BME280;15244;49.088;11.886;2022-10-31T04:34:56;96279.50;;;15.67;53.96
27425;BME280;15244;49.088;11.886;2022-10-31T04:40:00;96283.47;;;15.62;53.91
27425;BME280;15244;49.088;11.886;2022-10-31T04:45:12;96270.94;;;15.57;54.13
27425;BME280;15244;49.088;11.886;2022-10-31T04:50:24;96271.34;;;15.56;54.58
27425;BME280;15244;49.088;11.886;2022-10-31T04:55:32;96286.28;;;15.55;54.54
27425;BME280;15244;49.088;11.886;2022-10-31T05:00:54;96281.97;;;15.50;54.08
27425;BME280;15244;49.088;11.886;2022-10-31T05:05:57;96286.69;;;15.46;53.89
27425;BME280;15244;49.088;11.886;2022-10-31T05:11:06;96278.91;;;15.37;53.53
27425;BME280;15244;49.088;11.886;2022-10-31T05:16:10;96281.31;;;15.28;53.10
27425;BME280;15244;49.088;11.886;2022-10-31T05:21:36;96286.44;;;15.19;53.59
27425;BME280;15244;49.088;11.886;2022-10-31T05:26:38;96271.19;;;15.14;53.00
27425;BME280;15244;49.088;11.886;2022-10-31T05:31:43;96278.25;;;15.12;53.96
27425;BME280;15244;49.088;11.886;2022-10-31T05:37:06;96264.94;;;15.10;53.74
27425;BME280;15244;49.088;11.886;2022-10-31T05:42:13;96269.22;;;15.11;54.20
27425;BME280;15244;49.088;11.886;2022-10-31T05:47:18;96270.41;;;15.10;54.45
27425;BME280;15244;49.088;11.886;2022-10-31T05:52:38;96275.91;;;15.10;54.76
27425;BME280;15244;49.088;11.886;2022-10-31T05:58:00;96278.25;;;15.08;54.67
27425;BME280;15244;49.088;11.886;2022-10-31T06:03:08;96271.63;;;15.02;53.87
27425;BME280;15244;49.088;11.886;2022-10-31T06:08:30;96285.78;;;14.97;54.02
27425;BME280;15244;49.088;11.886;2022-10-31T06:13:39;96292.47;;;14.92;53.64
27425;BME280;15244;49.088;11.886;2022-10-31T06:18:49;96281.88;;;14.87;53.34
27425;BME280;15244;49.088;11.886;2022-10-31T06:23:53;96285.81;;;14.83;53.64
27425;BME280;15244;49.088;11.886;2022-10-31T06:29:13;96291.72;;;14.78;53.20
27425;BME280;15244;49.088;11.886;2022-10-31T06:34:31;96286.25;;;14.74;53.10
27425;BME280;15244;49.088;11.886;2022-10-31T06:39:36;96290.94;;;14.73;53.31
27425;BME280;15244;49.088;11.886;2022-10-31T06:44:38;96300.34;;;14.76;53.92
27425;BME280;15244;49.088;11.886;2022-10-31T06:50:01;96298.00;;;14.78;53.79
27425;BME280;15244;49.088;11.886;2022-10-31T06:55:05;96303.09;;;14.80;53.69
27425;BME280;15244;49.088;11.886;2022-10-31T07:00:08;96301.91;;;14.84;53.93
27425;BME280;15244;49.088;11.886;2022-10-31T07:05:20;96308.53;;;14.90;54.59
27425;BME280;15244;49.088;11.886;2022-10-31T07:10:27;96313.63;;;14.99;54.88
27425;BME280;15244;49.088;11.886;2022-10-31T07:15:39;96317.13;;;15.07;54.94
27425;BME280;15244;49.088;11.886;2022-10-31T07:20:42;96314.75;;;15.12;54.69
27425;BME280;15244;49.088;11.886;2022-10-31T07:25:44;96323.31;;;15.22;54.86
27425;BME280;15244;49.088;11.886;2022-10-31T07:30:56;96317.03;;;15.32;55.20
27425;BME280;15244;49.088;11.886;2022-10-31T07:36:05;96320.47;;;15.43;55.37
27425;BME280;15244;49.088;11.886;2022-10-31T07:41:10;96323.16;;;15.54;55.62
27425;BME280;15244;49.088;11.886;2022-10-31T07:46:16;96315.66;;;15.65;55.77
27425;BME280;15244;49.088;11.886;2022-10-31T07:51:39;96316.38;;;15.76;56.02
27425;BME280;15244;49.088;11.886;2022-10-31T07:57:18;96315.53;;;15.87;56.27
27425;BME280;15244;49.088;11.886;2022-10-31T08:02:28;96309.94;;;15.97;56.09
27425;BME280;15244;49.088;11.886;2022-10-31T08:07:56;96298.09;;;16.08;56.22
27425;BME280;15244;49.088;11.886;2022-10-31T08:13:11;96291.31;;;16.19;56.38
27425;BME280;15244;49.088;11.886;2022-10-31T08:18:17;96290.41;;;16.33;56.36
27425;BME280;15244;49.088;11.886;2022-10-31T08:23:25;96291.47;;;16.46;56.36
27425;BME280;15244;49.088;11.886;2022-10-31T08:28:28;96280.34;;;16.57;56.08
27425;BME280;15244;49.088;11.886;2022-10-31T08:33:36;96278.28;;;16.68;56.42
27425;BME280;15244;49.088;11.886;2022-10-31T08:38:52;96272.25;;;16.77;56.21
27425;BME280;15244;49.088;11.886;2022-10-31T08:44:01;96265.09;;;16.87;56.46
27425;BME280;15244;49.088;11.886;2022-10-31T08:49:03;96272.03;;;16.99;56.41
27425;BME280;15244;49.088;11.886;2022-10-31T08:54:05;96274.66;;;17.09;56.28
27425;BME280;15244;49.088;11.886;2022-10-31T08:59:09;96270.22;;;17.19;56.08
27425;BME280;15244;49.088;11.886;2022-10-31T09:04:29;96270.91;;;17.27;55.80
27425;BME280;15244;49.088;11.886;2022-10-31T09:09:36;96269.63;;;17.35;55.59
27425;BME280;15244;49.088;11.886;2022-10-31T09:14:40;96272.69;;;17.41;55.48
27425;BME280;15244;49.088;11.886;2022-10-31T09:19:54;96272.63;;;17.44;54.91
27425;BME280;15244;49.088;11.886;2022-10-31T09:25:02;96266.75;;;17.42;54.40
27425;BME280;15244;49.088;11.886;2022-10-31T09:30:05;96260.09;;;17.40;54.42
27425;BME280;15244;49.088;11.886;2022-10-31T09:35:07;96262.50;;;17.38;54.54
27425;BME280;15244;49.088;11.886;2022-10-31T09:40:10;96266.03;;;17.38;54.48
27425;BME280;15244;49.088;11.886;2022-10-31T09:45:30;96262.88;;;17.40;54.72
27425;BME280;15244;49.088;11.886;2022-10-31T09:50:49;96257.69;;;17.42;54.63
27425;BME280;15244;49.088;11.886;2022-10-31T09:56:20;96257.22;;;17.47;54.58
27425;BME280;15244;49.088;11.886;2022-10-31T10:07:11;96249.16;;;17.60;54.73
27425;BME280;15244;49.088;11.886;2022-10-31T10:24:07;96246.41;;;18.10;54.82
27425;BME280;15244;49.088;11.886;2022-10-31T10:34:30;96234.41;;;18.44;54.84
27425;BME280;15244;49.088;11.886;2022-10-31T10:39:38;96221.88;;;18.59;54.86
27425;BME280;15244;49.088;11.886;2022-10-31T10:44:52;96217.66;;;18.75;54.78
27425;BME280;15244;49.088;11.886;2022-10-31T10:50:19;96220.16;;;18.89;54.66
27425;BME280;15244;49.088;11.886;2022-10-31T11:00:41;96210.34;;;19.24;54.38
27425;BME280;15244;49.088;11.886;2022-10-31T11:05:53;96203.69;;;19.38;54.40
27425;BME280;15244;49.088;11.886;2022-10-31T11:16:33;96192.06;;;19.63;54.01
27425;BME280;15244;49.088;11.886;2022-10-31T11:21:42;96183.50;;;19.74;53.59
27425;BME280;15244;49.088;11.886;2022-10-31T11:27:15;96186.38;;;19.87;53.58
27425;BME280;15244;49.088;11.886;2022-10-31T11:32:27;96175.38;;;20.00;53.51
27425;BME280;15244;49.088;11.886;2022-10-31T11:37:34;96171.53;;;20.10;53.06
27425;BME280;15244;49.088;11.886;2022-10-31T11:42:41;96155.88;;;20.20;52.80
27425;BME280;15244;49.088;11.886;2022-10-31T11:47:47;96155.16;;;20.32;52.74
27425;BME280;15244;49.088;11.886;2022-10-31T11:52:51;96144.22;;;20.41;52.25
27425;BME280;15244;49.088;11.886;2022-10-31T11:57:59;96130.97;;;20.49;52.57
27425;BME280;15244;49.088;11.886;2022-10-31T12:08:29;96129.13;;;20.59;52.40
27425;BME280;15244;49.088;11.886;2022-10-31T12:18:57;96117.94;;;20.62;51.79
27425;BME280;15244;49.088;11.886;2022-10-31T12:24:10;96115.50;;;20.64;51.66
27425;BME280;15244;49.088;11.886;2022-10-31T12:29:36;96102.00;;;20.66;51.82
27425;BME280;15244;49.088;11.886;2022-10-31T12:35:10;96114.50;;;20.71;51.64
27425;BME280;15244;49.088;11.886;2022-10-31T12:56:20;96087.81;;;20.77;51.04
27425;BME280;15244;49.088;11.886;2022-10-31T13:01:56;96077.84;;;20.80;51.33
27425;BME280;15244;49.088;11.886;2022-10-31T13:07:04;96078.63;;;20.80;50.61
27425;BME280;15244;49.088;11.886;2022-10-31T13:12:13;96068.09;;;20.75;50.71
27425;BME280;15244;49.088;11.886;2022-10-31T13:17:39;96068.44;;;20.77;50.60
27425;BME280;15244;49.088;11.886;2022-10-31T13:22:46;96075.50;;;20.78;50.30
27425;BME280;15244;49.088;11.886;2022-10-31T13:28:05;96067.66;;;20.76;50.15
27425;BME280;15244;49.088;11.886;2022-10-31T13:33:29;96064.09;;;20.76;50.01
27425;BME280;15244;49.088;11.886;2022-10-31T13:39:21;96057.91;;;20.72;49.59
27425;BME280;15244;49.088;11.886;2022-10-31T13:44:28;96049.25;;;20.70;49.78
27425;BME280;15244;49.088;11.886;2022-10-31T13:49:38;96043.38;;;20.68;49.74
27425;BME280;15244;49.088;11.886;2022-10-31T13:54:46;96038.72;;;20.65;49.79
27425;BME280;15244;49.088;11.886;2022-10-31T14:05:29;96024.66;;;20.59;49.88
27425;BME280;15244;49.088;11.886;2022-10-31T14:15:37;96016.00;;;20.57;49.78
27425;BME280;15244;49.088;11.886;2022-10-31T14:20:43;96017.78;;;20.64;49.98
27425;BME280;15244;49.088;11.886;2022-10-31T14:25:45;96015.09;;;20.73;49.94
27425;BME280;15244;49.088;11.886;2022-10-31T14:30:59;96008.47;;;20.83;49.72
27425;BME280;15244;49.088;11.886;2022-10-31T14:36:09;96001.03;;;20.93;49.35
27425;BME280;15244;49.088;11.886;2022-10-31T14:42:16;95991.59;;;21.03;49.16
27425;BME280;15244;49.088;11.886;2022-10-31T14:52:24;95974.84;;;21.07;48.62
27425;BME280;15244;49.088;11.886;2022-10-31T14:57:28;95973.75;;;21.04;48.27
27425;BME280;15244;49.088;11.886;2022-10-31T15:03:04;95968.78;;;20.99;48.52
27425;BME280;15244;49.088;11.886;2022-10-31T15:08:31;95970.97;;;20.91;48.32
27425;BME280;15244;49.088;11.886;2022-10-31T15:13:53;95962.13;;;20.84;48.07
27425;BME280;15244;49.088;11.886;2022-10-31T15:18:59;95968.22;;;20.78;48.20
27425;BME280;15244;49.088;11.886;2022-10-31T15:24:02;95958.16;;;20.72;48.32
27425;BME280;15244;49.088;11.886;2022-10-31T15:29:14;95948.53;;;20.64;48.27
27425;BME280;15244;49.088;11.886;2022-10-31T15:34:21;95948.41;;;20.54;48.08
27425;BME280;15244;49.088;11.886;2022-10-31T15:39:33;95945.06;;;20.47;48.30
27425;BME280;15244;49.088;11.886;2022-10-31T15:44:40;95944.50;;;20.39;48.24
27425;BME280;15244;49.088;11.886;2022-10-31T15:49:57;95938.84;;;20.30;48.18
27425;BME280;15244;49.088;11.886;2022-10-31T15:55:05;95927.69;;;20.21;48.32
27425;BME280;15244;49.088;11.886;2022-10-31T16:00:27;95926.78;;;20.11;48.23
27425;BME280;15244;49.088;11.886;2022-10-31T16:10:51;95923.84;;;19.89;48.68
27425;BME280;15244;49.088;11.886;2022-10-31T16:15:57;95930.06;;;19.80;48.83
27425;BME280;15244;49.088;11.886;2022-10-31T16:21:24;95931.91;;;19.70;48.91
27425;BME280;15244;49.088;11.886;2022-10-31T16:26:29;95947.91;;;19.63;48.99
27425;BME280;15244;49.088;11.886;2022-10-31T16:31:39;95935.03;;;19.56;49.19
27425;BME280;15244;49.088;11.886;2022-10-31T16:36:43;95929.69;;;19.49;49.23
27425;BME280;15244;49.088;11.886;2022-10-31T16:41:51;95921.94;;;19.44;49.39
27425;BME280;15244;49.088;11.886;2022-10-31T16:47:15;95916.16;;;19.38;49.29
27425;BME280;15244;49.088;11.886;2022-10-31T16:52:22;95903.66;;;19.34;49.40
27425;BME280;15244;49.088;11.886;2022-10-31T16:57:31;95904.63;;;19.27;49.42
27425;BME280;15244;49.088;11.886;2022-10-31T17:02:32;95923.72;;;19.21;49.34
27425;BME280;15244;49.088;11.886;2022-10-31T17:07:34;95923.56;;;19.12;49.37
27425;BME280;15244;49.088;11.886;2022-10-31T17:12:36;95927.63;;;19.08;49.63
27425;BME280;15244;49.088;11.886;2022-10-31T17:17:39;95933.69;;;19.02;49.68
27425;BME280;15244;49.088;11.886;2022-10-31T17:22:41;95925.94;;;18.97;49.40
27425;BME280;15244;49.088;11.886;2022-10-31T17:27:42;95925.34;;;18.90;49.61
27425;BME280;15244;49.088;11.886;2022-10-31T17:32:51;95918.44;;;18.81;49.47
27425;BME280;15244;49.088;11.886;2022-10-31T17:37:55;95915.06;;;18.74;49.37
27425;BME280;15244;49.088;11.886;2022-10-31T17:43:00;95911.69;;;18.66;49.60
27425;BME280;15244;49.088;11.886;2022-10-31T17:48:02;95918.50;;;18.61;49.32
27425;BME280;15244;49.088;11.886;2022-10-31T17:53:06;95915.91;;;18.54;49.38
27425;BME280;15244;49.088;11.886;2022-10-31T17:58:09;95906.16;;;18.50;49.52
27425;BME280;15244;49.088;11.886;2022-10-31T18:03:17;95911.78;;;18.46;49.71
27425;BME280;15244;49.088;11.886;2022-10-31T18:08:19;95911.06;;;18.42;49.27
27425;BME280;15244;49.088;11.886;2022-10-31T18:13:30;95907.59;;;18.38;49.60
27425;BME280;15244;49.088;11.886;2022-10-31T18:18:33;95912.00;;;18.35;49.69
27425;BME280;15244;49.088;11.886;2022-10-31T18:23:35;95908.97;;;18.30;49.66
27425;BME280;15244;49.088;11.886;2022-10-31T18:28:37;95896.13;;;18.23;49.46
27425;BME280;15244;49.088;11.886;2022-10-31T18:33:38;95886.03;;;18.16;49.81
27425;BME280;15244;49.088;11.886;2022-10-31T18:38:46;95891.66;;;18.13;49.86
27425;BME280;15244;49.088;11.886;2022-10-31T18:43:49;95896.81;;;18.11;50.01
27425;BME280;15244;49.088;11.886;2022-10-31T18:48:53;95904.38;;;18.07;49.90
27425;BME280;15244;49.088;11.886;2022-10-31T18:53:59;95902.47;;;18.04;49.97
27425;BME280;15244;49.088;11.886;2022-10-31T18:59:04;95893.50;;;18.00;50.17
27425;BME280;15244;49.088;11.886;2022-10-31T19:04:13;95905.81;;;17.95;49.95
27425;BME280;15244;49.088;11.886;2022-10-31T19:09:17;95894.16;;;17.87;49.98
27425;BME280;15244;49.088;11.886;2022-10-31T19:14:21;95885.97;;;17.84;50.07
27425;BME280;15244;49.088;11.886;2022-10-31T19:19:22;95878.16;;;17.79;50.23
27425;BME280;15244;49.088;11.886;2022-10-31T19:24:33;95881.34;;;17.77;50.60
27425;BME280;15244;49.088;11.886;2022-10-31T19:29:38;95879.81;;;17.76;50.81
27425;BME280;15244;49.088;11.886;2022-10-31T19:34:43;95885.41;;;17.72;50.94
27425;BME280;15244;49.088;11.886;2022-10-31T19:39:47;95884.69;;;17.68;50.86
27425;BME280;15244;49.088;11.886;2022-10-31T19:44:50;95890.63;;;17.67;50.83
27425;BME280;15244;49.088;11.886;2022-10-31T19:50:11;95876.91;;;17.63;50.97
27425;BME280;15244;49.088;11.886;2022-10-31T19:55:13;95876.22;;;17.59;51.11
27425;BME280;15244;49.088;11.886;2022-10-31T20:00:20;95868.03;;;17.55;51.24
27425;BME280;15244;49.088;11.886;2022-10-31T20:05:22;95876.72;;;17.54;51.20
27425;BME280;15244;49.088;11.886;2022-10-31T20:10:26;95870.00;;;17.55;51.43
27425;BME280;15244;49.088;11.886;2022-10-31T20:15:32;95867.25;;;17.55;51.77
27425;BME280;15244;49.088;11.886;2022-10-31T20:20:36;95863.00;;;17.50;52.18
27425;BME280;15244;49.088;11.886;2022-10-31T20:25:45;95866.91;;;17.53;52.07
27425;BME280;15244;49.088;11.886;2022-10-31T20:30:54;95871.19;;;17.54;52.18
27425;BME280;15244;49.088;11.886;2022-10-31T20:35:56;95878.69;;;17.53;52.13
27425;BME280;15244;49.088;11.886;2022-10-31T20:41:02;95867.31;;;17.51;51.91
27425;BME280;15244;49.088;11.886;2022-10-31T20:46:10;95870.16;;;17.48;51.81
27425;BME280;15244;49.088;11.886;2022-10-31T20:51:15;95864.69;;;17.44;51.88
27425;BME280;15244;49.088;11.886;2022-10-31T20:56:23;95861.16;;;17.44;51.81
27425;BME280;15244;49.088;11.886;2022-10-31T21:01:28;95864.38;;;17.42;52.33
27425;BME280;15244;49.088;11.886;2022-10-31T21:06:32;95859.69;;;17.39;52.09
27425;BME280;15244;49.088;11.886;2022-10-31T21:11:38;95853.84;;;17.37;52.05
27425;BME280;15244;49.088;11.886;2022-10-31T21:16:41;95868.81;;;17.36;52.06
27425;BME280;15244;49.088;11.886;2022-10-31T21:21:47;95864.16;;;17.33;52.10
27425;BME280;15244;49.088;11.886;2022-10-31T21:26:50;95862.25;;;17.30;52.37
27425;BME280;15244;49.088;11.886;2022-10-31T21:31:51;95851.28;;;17.26;52.41
27425;BME280;15244;49.088;11.886;2022-10-31T21:36:55;95856.88;;;17.23;52.50
27425;BME280;15244;49.088;11.886;2022-10-31T21:41:59;95856.59;;;17.17;52.46
27425;BME280;15244;49.088;11.886;2022-10-31T21:47:05;95856.28;;;17.11;52.73
27425;BME280;15244;49.088;11.886;2022-10-31T21:52:07;95848.09;;;17.08;52.84
27425;BME280;15244;49.088;11.886;2022-10-31T21:57:11;95846.56;;;17.07;52.99
27425;BME280;15244;49.088;11.886;2022-10-31T22:02:15;95841.88;;;17.04;52.84
27425;BME280;15244;49.088;11.886;2022-10-31T22:07:17;95836.03;;;17.02;52.90
27425;BME280;15244;49.088;11.886;2022-10-31T22:12:21;95845.13;;;16.99;53.27
27425;BME280;15244;49.088;11.886;2022-10-31T22:17:23;95836.16;;;16.95;53.43
27425;BME280;15244;49.088;11.886;2022-10-31T22:22:24;95829.53;;;16.92;53.57
27425;BME280;15244;49.088;11.886;2022-10-31T22:27:26;95844.91;;;16.89;53.50
27425;BME280;15244;49.088;11.886;2022-10-31T22:32:29;95832.78;;;16.87;53.79
27425;BME280;15244;49.088;11.886;2022-10-31T22:37:33;95835.16;;;16.85;53.86
27425;BME280;15244;49.088;11.886;2022-10-31T22:42:35;95827.31;;;16.83;53.94
27425;BME280;15244;49.088;11.886;2022-10-31T22:47:39;95818.72;;;16.81;54.06
27425;BME280;15244;49.088;11.886;2022-10-31T22:52:46;95823.88;;;16.79;53.94
27425;BME280;15244;49.088;11.886;2022-10-31T22:57:47;95817.19;;;16.77;54.25
27425;BME280;15244;49.088;11.886;2022-10-31T23:02:54;95821.56;;;16.74;54.09
27425;BME280;15244;49.088;11.886;2022-10-31T23:07:56;95816.91;;;16.71;54.23
27425;BME280;15244;49.088;11.886;2022-10-31T23:13:00;95807.94;;;16.67;54.37
27425;BME280;15244;49.088;11.886;2022-10-31T23:18:20;95817.44;;;16.62;54.42
27425;BME280;15244;49.088;11.886;2022-10-31T23:23:42;95828.09;;;16.60;54.59
27425;BME280;15244;49.088;11.886;2022-10-31T23:28:44;95812.00;;;16.59;54.82
27425;BME280;15244;49.088;11.886;2022-10-31T23:33:48;95824.66;;;16.56;54.66
27425;BME280;15244;49.088;11.886;2022-10-31T23:38:52;95835.28;;;16.54;54.54
27425;BME280;15244;49.088;11.886;2022-10-31T23:43:56;95842.41;;;16.52;55.00
27425;BME280;15244;49.088;11.886;2022-10-31T23:48:58;95829.50;;;16.49;54.95
27425;BME280;15244;49.088;11.886;2022-10-31T23:54:00;95841.31;;;16.45;55.02
27425;BME280;15244;49.088;11.886;2022-10-31T23:59:06;95845.34;;;16.41;55.17
